Meteo Giornale » Osservazioni meteo Italia » Venezia-Tessera

ore: 08:20 - Osservazioni Meteo Venezia-Tessera
Lat. 45° 30' N Lon. 12° 20' E Alt. 2 metri s.l.m.

sereno Europe/Rome

28 °C

Sereno

Temp. 24 Ore

25 °C

33 °C

Nord

5.5 Km/h

Dew point 22 °C

Umidità 69 %

Visibilità  10 Km

Il sole sorge alle ore 05:22

Il sole tramonta alle ore 21:05

Data e Ora Cielo e Fenomeni T °C DP °C Um. % Pres. hPa Vis. km Vento km/h
Oggi h: 08:20 sereno Sereno 28 22 69 1019 10 N 5.5
Oggi h: 07:50 sereno Sereno 27 21 69 1019 10 N 3.7
Oggi h: 07:20 sereno Sereno 26 21 73 1019 10 N 5.5
Oggi h: 06:50 sereno Sereno 25 21 78 1019 10 N 3.7
Oggi h: 05:50 sereno Sereno 25 20 73 1019 10 N/NO 7.4
Oggi h: 05:20 sereno Sereno 25 20 73 1019 10 NO 7.4
Oggi h: 04:50 sereno Sereno 25 20 73 1019 10 N 5.5
Oggi h: 04:20 sereno Sereno 26 20 69 1019 10 O/NO 7.4
Oggi h: 03:50 sereno Sereno 26 20 69 1019 10 O/NO 7.4
Oggi h: 03:20 sereno Sereno 27 20 65 1019 10 O/NO 9.3
Oggi h: 02:50 sereno Sereno 27 20 65 1020 10 O/NO 9.3
Oggi h: 02:20 sereno Sereno 26 20 69 1020 10 O 7.4
Oggi h: 01:50 sereno Sereno 27 20 65 1020 10 O 7.4
Oggi h: 01:20 sereno Sereno 27 20 65 1020 10 O 7.4
Oggi h: 00:50 sereno Sereno 27 19 61 1020 10 O 9.3
Oggi h: 00:20 sereno Sereno 27 19 61 1020 10 O 11.1
Ieri h: 23:50 sereno Sereno 28 20 61 1020 10 O 9.3
Ieri h: 23:20 sereno Sereno 28 22 69 1020 10 O/SO 9.3
Ieri h: 22:50 sereno Sereno 28 22 69 1020 10 O/SO 9.3
Ieri h: 22:20 sereno Sereno 29 22 66 1020 10 SO 9.3
Ieri h: 21:50 sereno Sereno 29 22 66 1020 10 S/SO 11.1
Ieri h: 21:20 sereno Sereno 29 21 62 1020 10 SO 11.1
Ieri h: 20:50 sereno Sereno 30 21 58 1020 10 SO 9.3
Ieri h: 19:50 sereno Sereno 31 19 48 1020 10 N 5.5
Ieri h: 19:20 sereno Sereno 32 21 52 1020 10 S/SO 9.3
Ieri h: 17:50 sereno Sereno 33 18 41 1020 10 N 5.5
Ieri h: 17:20 sereno Sereno 32 17 40 1020 10 S/SE 9.3
Ieri h: 16:50 sereno Sereno 33 19 43 1021 10 S/SE 9.3
Ieri h: 16:20 sereno Sereno 33 20 46 1021 10 S 7.4
Ieri h: 15:50 sereno Sereno 32 19 46 1021 10 S/SE 9.3
Ieri h: 15:20 sereno Sereno 32 20 49 1021 10 S/SE 9.3
Ieri h: 14:50 sereno Sereno 33 21 49 1022 10 S/SE 9.3
Ieri h: 14:20 sereno Sereno 33 21 49 1022 10 S 9.3
Ieri h: 13:50 sereno Sereno 32 21 52 1022 10 S/SE 11.1
Ieri h: 13:20 sereno Sereno 32 22 55 1022 10 S/SE 11.1
Ieri h: 12:50 sereno Sereno 32 21 52 1022 10 S/SE 9.3
Ieri h: 12:20 sereno Sereno 32 21 52 1022 10 SE 9.3
Ieri h: 11:50 sereno Sereno 32 20 49 1022 10 E/SE 14.8
Ieri h: 11:20 sereno Sereno 32 20 49 1022 10 E 13
Ieri h: 10:50 sereno Sereno 31 20 52 1022 10 E 13
Ieri h: 10:20 sereno Sereno 31 20 52 1022 10 E 14.8
Ieri h: 09:50 sereno Sereno 30 21 58 1022 10 E/NE 11.1
Ieri h: 09:20 sereno Sereno 29 21 62 1023 10 E/NE 11.1
Ieri h: 08:50 sereno Sereno 29 20 58 1022 10 NE 11.1